Des Moines International Airport Des Moines US
ICAO: KDSM
IATA: DSM
Category: Large
Scheduled Services: Yes

Elevation: 958 ft
TransAlt. 18000 ft.

Airport Communications:
APP/DEP:118.6
ATIS:119.55
CLNC DEL:134.15
GND:121.9
ANG OPS MAINT:138.15
FORT DODGE RDO:122.65
TWR:118.3
UNICOM:122.95

KDSM Zoom In..

If you have problems with the map follow the link
https://www.worldairports.se/pages/airport.php?
ICAO=KDSM

Runways:

(A) RW 05 length 9003 ft width 150 ft
ILS 111.50 / hdg 51

(B) RW 13 length 9002 ft width 150 ft
ILS 111.90 / hdg 129

(C) RW 23 length 9003 ft width 150 ft
---- / hdg 231

(D) RW 31 length 9002 ft width 150 ft
ILS 110.30 / hdg 309

Location; KDSM
Day. 18 / Time. 01.54 Zulu
* Altimeter: 30.02
* Temperature: -06° c. -21.2°f.
* Wind from: 320° Speed 09 kn.
Dewpoint: -07° c.
Visibility: 3 Statute Miles.
Clouds: Few 800 ft.
Clouds: Broken 1700 ft.
Clouds: Overcast 2900 ft.
Conditions: Light Snow.Conditions: Mist.

KDSM 180154Z 32009KT 3SM -SN BR FEW008 BKN017 OVC029 M06/M07 A3002 RMK AO2 SLP177 P0001 T10561072


Wind From 320°
Speed 09 kn.

 
 
jpsmedia.com for Web Design worldairports.se 2019   terms of use